Time;durP1;ratioP1;P1;durP2;ratioP2;P2;SDS_P1;SDS_P2;PMS_P1;PMS_P2;Temp;Humidity;BMP_temperature;BMP_pressure;BME280_temperature;BME280_humidity;BME280_pressure;Samples;Min_cycle;Max_cycle;Signal;HPM_P1;HPM_P2
2024/04/01 00:01:40;;;;;;;41.37;29.83;;;11.50;99.90;;;-141.84;94.71;102455.00;5112462;28;20674;-62
2024/04/01 00:04:09;;;;;;;52.63;31.50;;;11.50;99.90;;;-141.84;94.49;101923.81;5111940;27;20585;-60
2024/04/01 00:06:38;;;;;;;43.07;30.23;;;11.50;99.90;;;-141.84;95.53;103783.25;5106943;28;20211;-61
2024/04/01 00:09:07;;;;;;;46.73;30.57;;;11.50;99.90;;;-141.84;95.71;104314.66;5109736;27;20222;-61
2024/04/01 00:11:33;;;;;;;39.83;29.37;;;11.40;99.90;;;-141.84;95.96;104580.41;5104200;27;20250;-60
2024/04/01 00:14:00;;;;;;;51.70;30.43;;;11.40;99.90;;;-141.84;96.64;105909.34;5108890;28;20288;-61
2024/04/01 00:16:27;;;;;;;40.70;30.40;;;11.40;99.90;;;-141.84;96.74;106175.19;5109705;28;20284;-60
2024/04/01 00:18:54;;;;;;;37.37;29.27;;;11.40;99.90;;;-141.84;97.56;107770.63;5112138;28;20226;-63
2024/04/01 00:21:20;;;;;;;49.30;30.97;;;11.30;99.90;;;-141.84;97.95;108568.56;5112782;28;20245;-61
2024/04/01 00:23:53;;;;;;;47.87;31.13;;;11.30;99.90;;;-141.84;95.54;103783.25;5116418;27;20222;-62
2024/04/01 00:26:22;;;;;;;44.27;31.53;;;11.30;99.90;;;-141.84;95.78;104314.66;5116603;27;20259;-62
2024/04/01 00:28:49;;;;;;;45.87;29.20;;;11.30;99.90;;;-141.84;95.47;104048.94;5117359;27;20210;-61
2024/04/01 00:31:16;;;;;;;46.77;29.90;;;11.30;99.90;;;-141.84;95.83;104048.94;5116161;27;20219;-61
2024/04/01 00:33:43;;;;;;;48.40;30.03;;;11.30;99.90;;;-141.84;95.98;104846.16;5118382;27;20214;-61
2024/04/01 00:36:09;;;;;;;46.67;31.10;;;11.30;99.90;;;-141.84;95.26;103517.56;5114153;27;20772;-62
2024/04/01 00:38:36;;;;;;;43.50;29.67;;;11.30;99.90;;;-141.84;95.60;104048.94;5114236;27;20226;-62
2024/04/01 00:41:04;;;;;;;49.33;28.87;;;11.30;99.90;;;-141.84;97.30;107238.72;5116568;27;20198;-62
2024/04/01 00:43:32;;;;;;;41.53;27.37;;;11.30;99.90;;;-141.84;97.54;107504.66;5112907;28;20841;-61
2024/04/01 00:46:00;;;;;;;51.07;30.33;;;11.30;99.90;;;-141.84;97.17;107504.66;5112911;27;20219;-61
2024/04/01 00:48:28;;;;;;;40.37;29.57;;;11.30;99.90;;;-141.84;97.92;107770.63;5116221;27;20226;-61
2024/04/01 00:50:55;;;;;;;46.20;30.67;;;11.30;99.90;;;-141.84;97.86;108302.56;5116397;27;20245;-61
2024/04/01 00:53:22;;;;;;;43.30;29.90;;;11.30;99.90;;;-141.84;98.09;108302.56;5118409;27;20228;-61
2024/04/01 00:55:49;;;;;;;47.40;29.57;;;11.30;99.90;;;-141.84;98.31;109100.59;5114363;28;20204;-61
2024/04/01 00:58:19;;;;;;;47.97;29.10;;;11.30;99.90;;;-141.84;98.14;108302.56;5112844;28;20238;-61
2024/04/01 01:00:48;;;;;;;49.83;28.77;;;11.40;99.90;;;-141.84;98.25;109100.59;5113462;27;20223;-61
2024/04/01 01:03:16;;;;;;;48.27;29.63;;;11.30;99.90;;;-141.84;99.03;110164.91;5112452;28;20298;-63
2024/04/01 01:05:44;;;;;;;46.67;28.77;;;11.40;99.90;;;-141.84;99.56;110963.31;5115824;27;20222;-62
2024/04/01 01:08:12;;;;;;;47.10;30.23;;;11.30;99.90;;;-141.84;99.75;111229.50;5116117;27;20674;-62
2024/04/01 01:10:43;;;;;;;47.87;29.90;;;11.30;99.90;;;-141.84;100.00;113093.19;5112620;28;20215;-60
2024/04/01 01:13:12;;;;;;;44.57;28.83;;;11.20;99.90;;;-141.84;100.00;112826.88;5114633;27;20235;-61
2024/04/01 01:15:40;;;;;;;48.90;29.30;;;11.30;99.90;;;-141.84;100.00;114158.53;5114262;27;20215;-60
2024/04/01 01:18:08;;;;;;;43.53;28.77;;;11.20;99.90;;;-141.84;100.00;114957.72;5120111;27;20221;-60
2024/04/01 01:20:34;;;;;;;43.43;29.60;;;11.20;99.90;;;-141.84;100.00;115490.59;5118382;27;20222;-60
2024/04/01 01:23:03;;;;;;;46.00;28.07;;;11.10;99.90;;;-141.84;100.00;116556.59;5122704;27;20670;-63
2024/04/01 01:25:29;;;;;;;46.17;30.33;;;11.10;99.90;;;-141.84;100.00;117089.69;5118802;27;20214;-61
2024/04/01 01:27:56;;;;;;;47.83;29.90;;;11.10;99.90;;;-141.84;100.00;116556.59;5119197;27;20218;-60
2024/04/01 01:30:23;;;;;;;44.67;30.00;;;11.10;99.90;;;-141.84;100.00;116290.06;5123422;27;20214;-59
2024/04/01 01:32:54;;;;;;;41.90;29.17;;;11.10;99.90;;;-141.84;100.00;115224.16;5122721;27;20218;-60
2024/04/01 01:35:23;;;;;;;36.20;27.90;;;11.20;99.90;;;-141.84;100.00;115224.16;5119999;27;20805;-60
2024/04/01 01:37:51;;;;;;;42.53;28.60;;;11.20;99.90;;;-141.84;100.00;115757.06;5124857;27;20255;-60
2024/04/01 01:40:20;;;;;;;38.40;28.87;;;11.10;99.90;;;-141.84;100.00;116556.59;5118588;27;20215;-61
2024/04/01 01:42:48;;;;;;;43.90;30.30;;;11.10;99.90;;;-141.84;100.00;116023.56;5117081;27;20223;-61
2024/04/01 01:45:14;;;;;;;46.73;30.40;;;11.10;99.90;;;-141.84;100.00;115757.06;5122202;27;20215;-60
2024/04/01 01:47:44;;;;;;;42.77;29.20;;;11.10;99.90;;;-141.84;100.00;114691.31;5115894;27;20230;-61
2024/04/01 01:50:11;;;;;;;47.97;30.37;;;11.10;99.90;;;-141.84;100.00;114957.72;5122011;27;20203;-60
2024/04/01 01:52:43;;;;;;;47.87;30.07;;;11.10;99.90;;;-141.84;100.00;115224.16;5116308;27;20725;-59
2024/04/01 01:55:10;;;;;;;40.20;29.73;;;11.10;99.90;;;-141.84;100.00;116023.56;5117573;27;20214;-61
2024/04/01 01:57:44;;;;;;;44.43;29.43;;;11.10;99.90;;;-141.84;100.00;116556.59;5117107;27;20222;-60
2024/04/01 02:00:13;;;;;;;45.17;30.13;;;11.10;99.90;;;-141.84;100.00;116023.56;5125268;27;20214;-60
2024/04/01 02:02:44;;;;;;;48.73;30.27;;;11.00;99.90;;;-141.84;100.00;116290.06;5116222;27;20226;-60
2024/04/01 02:05:12;;;;;;;43.63;30.20;;;11.10;99.90;;;-141.84;100.00;114957.72;5120527;27;20198;-60
2024/04/01 02:07:45;;;;;;;42.40;29.97;;;11.10;99.90;;;-141.84;100.00;115224.16;5111089;27;20211;-60
2024/04/01 02:10:13;;;;;;;45.43;31.33;;;11.10;99.90;;;-141.84;100.00;114957.72;5114164;27;20267;-61
2024/04/01 02:12:45;;;;;;;45.83;30.30;;;11.20;99.90;;;-141.84;100.00;114957.72;5117496;27;20218;-60
2024/04/01 02:15:14;;;;;;;47.30;30.47;;;11.10;99.90;;;-141.84;100.00;114957.72;5116491;27;20218;-59
2024/04/01 02:17:44;;;;;;;48.37;31.77;;;11.20;99.90;;;-141.84;100.00;115224.16;5119107;27;20210;-60
2024/04/01 02:20:15;;;;;;;46.50;30.67;;;11.20;99.90;;;-141.84;100.00;113625.81;5106248;28;20195;-61
2024/04/01 02:22:45;;;;;;;49.47;30.27;;;11.20;99.90;;;-141.84;100.00;113892.16;5117896;27;20714;-60
2024/04/01 02:25:17;;;;;;;47.83;30.13;;;11.10;99.90;;;-141.84;100.00;112028.13;5112322;27;20221;-61
2024/04/01 02:27:46;;;;;;;43.60;29.43;;;11.30;99.90;;;-141.84;100.00;112826.88;5110769;28;20219;-60
2024/04/01 02:30:12;;;;;;;40.97;30.17;;;11.30;99.90;;;-141.84;100.00;114424.91;5116479;27;20280;-60
2024/04/01 02:32:44;;;;;;;52.23;30.87;;;11.20;99.90;;;-141.84;100.00;114691.31;5116045;27;20384;-60
2024/04/01 02:35:10;;;;;;;44.73;30.57;;;11.20;99.90;;;-141.84;100.00;113359.50;5050457;27;20453;-60
2024/04/01 02:37:37;;;;;;;48.13;28.97;;;11.20;99.90;;;-141.84;100.00;113093.19;5115436;27;20263;-60
2024/04/01 02:40:05;;;;;;;49.03;31.43;;;11.20;99.90;;;-141.84;100.00;112826.88;5063943;28;20227;-67
2024/04/01 02:42:33;;;;;;;49.10;31.37;;;11.20;99.90;;;-141.84;99.57;111229.50;5116552;27;20732;-66
2024/04/01 02:45:00;;;;;;;40.27;29.83;;;11.30;99.90;;;-141.84;100.00;111761.88;5115973;27;20244;-65
2024/04/01 02:47:28;;;;;;;45.47;30.03;;;11.30;99.90;;;-141.84;100.00;112294.34;5116665;27;20230;-65
2024/04/01 02:49:54;;;;;;;47.97;32.03;;;11.20;99.90;;;-141.84;100.00;112560.63;5121638;27;20207;-66
2024/04/01 02:52:21;;;;;;;49.77;31.33;;;11.20;99.90;;;-141.84;100.00;112826.88;5117647;27;20242;-64
2024/04/01 02:54:48;;;;;;;43.00;29.87;;;11.20;99.90;;;-141.84;100.00;112826.88;5119782;27;20223;-66
2024/04/01 02:57:15;;;;;;;49.07;30.90;;;11.20;99.90;;;-141.84;100.00;112294.34;5119468;27;20226;-66
2024/04/01 02:59:48;;;;;;;47.13;31.00;;;11.20;99.90;;;-141.84;100.00;112560.63;5126102;27;20218;-66
2024/04/01 03:02:16;;;;;;;46.10;29.27;;;11.20;99.90;;;-141.84;100.00;113093.19;5118109;27;20620;-66
2024/04/01 03:04:43;;;;;;;48.43;30.47;;;11.20;99.90;;;-141.84;99.65;111495.69;5118997;27;20210;-66
2024/04/01 03:07:14;;;;;;;48.90;31.10;;;11.30;99.90;;;-141.84;99.39;110963.31;5119610;27;20223;-69
2024/04/01 03:09:45;;;;;;;54.17;30.87;;;11.20;99.90;;;-141.84;98.86;110164.91;5121618;27;20215;-66
2024/04/01 03:12:14;;;;;;;49.50;31.83;;;11.20;99.90;;;-141.84;98.40;109366.66;5118711;27;20230;-66
2024/04/01 03:14:42;;;;;;;53.50;32.77;;;11.20;99.90;;;-141.84;98.97;110164.91;5116143;27;20630;-66
2024/04/01 03:17:10;;;;;;;50.03;30.93;;;11.20;99.90;;;-141.84;100.00;111761.88;5120839;27;20199;-66
2024/04/01 03:19:43;;;;;;;47.27;31.90;;;11.10;99.90;;;-141.84;100.00;111761.88;5119782;27;20761;-66
2024/04/01 03:22:14;;;;;;;48.27;33.57;;;11.10;99.90;;;-141.84;99.63;111495.69;5113685;27;20207;-65
2024/04/01 03:24:40;;;;;;;52.00;32.43;;;11.10;99.90;;;-141.84;100.00;112294.34;5118485;27;20223;-66
2024/04/01 03:27:08;;;;;;;40.20;31.47;;;11.10;99.90;;;-141.84;100.00;113359.50;5122006;27;20710;-66
2024/04/01 03:29:34;;;;;;;53.17;32.00;;;11.00;99.90;;;-141.84;100.00;114158.53;5119079;27;20234;-66
2024/04/01 03:32:01;;;;;;;48.83;32.97;;;11.00;99.90;;;-141.84;100.00;113625.81;5117021;27;20195;-66
2024/04/01 03:34:28;;;;;;;49.70;31.97;;;11.00;99.90;;;-141.84;100.00;113359.50;5114682;27;20214;-66
2024/04/01 03:36:58;;;;;;;55.00;33.60;;;10.90;99.90;;;-141.84;100.00;114691.31;5110318;28;20220;-65
2024/04/01 03:39:25;;;;;;;51.60;34.17;;;10.90;99.90;;;-141.84;100.00;114158.53;5113982;27;20426;-66
2024/04/01 03:41:53;;;;;;;53.33;32.10;;;10.90;99.90;;;-141.84;100.00;112028.13;5113040;27;20718;-66
2024/04/01 03:44:22;;;;;;;52.73;33.17;;;10.90;99.90;;;-141.84;100.00;112560.63;5120174;27;20650;-66
2024/04/01 03:46:48;;;;;;;42.40;32.47;;;10.90;99.90;;;-141.84;100.00;112826.88;5114948;27;20241;-66
2024/04/01 03:49:16;;;;;;;53.20;33.63;;;10.90;99.90;;;-141.84;100.00;115224.16;5115341;27;20229;-66
2024/04/01 03:51:43;;;;;;;44.53;32.97;;;10.80;99.90;;;-141.84;100.00;116556.59;5113932;27;20218;-66
2024/04/01 03:54:15;;;;;;;41.90;33.53;;;10.70;99.90;;;-141.84;100.00;116556.59;5114232;27;20214;-66
2024/04/01 03:56:41;;;;;;;52.87;33.57;;;10.70;99.90;;;-141.84;100.00;117089.69;5114299;27;20216;-65
2024/04/01 03:59:09;;;;;;;50.90;34.23;;;10.70;99.90;;;-141.84;100.00;116823.13;5114753;27;20572;-67
2024/04/01 04:01:35;;;;;;;54.60;33.40;;;10.60;99.90;;;-141.84;100.00;117356.25;5116490;27;20206;-67
2024/04/01 04:04:03;;;;;;;54.03;34.77;;;10.60;99.90;;;-141.84;100.00;116556.59;5116765;27;20226;-67
2024/04/01 04:06:29;;;;;;;48.67;32.63;;;10.60;99.90;;;-141.84;100.00;116556.59;5122169;27;20219;-66
2024/04/01 04:08:57;;;;;;;45.27;32.90;;;10.60;99.90;;;-141.84;100.00;113093.19;5113366;27;20226;-67
2024/04/01 04:11:24;;;;;;;54.23;33.93;;;10.60;99.90;;;-141.84;99.56;110963.31;5122220;27;20198;-66
2024/04/01 04:13:52;;;;;;;54.80;35.27;;;10.70;99.90;;;-141.84;98.87;109632.72;5118806;27;20226;-65
2024/04/01 04:16:18;;;;;;;48.57;34.17;;;10.70;99.90;;;-141.84;96.63;105909.34;5118976;28;20217;-66
2024/04/01 04:18:45;;;;;;;50.93;32.73;;;10.90;99.90;;;-141.84;96.73;106175.19;5120446;27;20566;-66
2024/04/01 04:21:12;;;;;;;55.70;33.30;;;10.80;99.90;;;-141.84;95.99;104314.66;5118465;28;20280;-66
2024/04/01 04:23:44;;;;;;;56.13;32.33;;;10.80;99.90;;;-141.84;94.07;99799.78;5115934;27;20226;-66
2024/04/01 04:26:10;;;;;;;49.80;32.97;;;10.80;99.90;;;-141.84;93.88;100065.22;5120276;28;20214;-66
2024/04/01 04:28:39;;;;;;;47.67;31.17;;;10.80;99.90;;;-141.84;93.47;99003.56;5116975;28;20214;-66
2024/04/01 04:31:06;;;;;;;46.50;30.87;;;10.80;99.90;;;-141.84;92.08;95555.09;5118685;28;20267;-66
2024/04/01 04:33:33;;;;;;;48.00;31.60;;;10.90;99.90;;;-141.84;92.60;96350.63;5120727;28;20240;-66
2024/04/01 04:35:59;;;;;;;47.03;31.83;;;10.90;99.90;;;-141.84;93.91;99534.38;5116628;28;20226;-67
2024/04/01 04:38:27;;;;;;;45.20;31.47;;;10.90;99.90;;;-141.84;94.88;102189.38;5120069;28;20198;-65
2024/04/01 04:40:53;;;;;;;50.93;31.57;;;10.90;99.90;;;-141.84;93.40;99268.97;5114800;28;20215;-65
2024/04/01 04:43:20;;;;;;;43.23;29.53;;;10.90;99.90;;;-141.84;93.41;98207.50;5112639;28;20230;-65
2024/04/01 04:45:48;;;;;;;42.67;31.00;;;10.90;99.90;;;-141.84;92.74;97411.59;5113646;28;20219;-66
2024/04/01 04:48:16;;;;;;;46.90;30.27;;;10.90;99.90;;;-141.84;92.02;95289.94;5109765;28;20219;-66
2024/04/01 04:50:42;;;;;;;40.90;30.00;;;10.90;99.90;;;-141.84;89.46;86285.31;5112553;28;20218;-66
2024/04/01 04:53:10;;;;;;;43.90;30.40;;;11.00;99.90;;;-141.84;89.61;87872.91;5118976;28;20210;-68
2024/04/01 04:55:37;;;;;;;45.37;30.80;;;11.00;99.90;;;-141.84;90.37;89990.66;5112523;28;20589;-66
2024/04/01 04:58:05;;;;;;;48.80;30.93;;;10.80;99.90;;;-141.84;89.34;86549.84;5112470;28;20219;-66
2024/04/01 05:00:31;;;;;;;50.13;28.83;;;10.90;99.90;;;-141.84;89.82;88137.56;5118378;28;20278;-67
2024/04/01 05:03:00;;;;;;;45.10;29.33;;;10.90;99.90;;;-141.84;90.09;88931.63;5114971;28;20235;-67
2024/04/01 05:05:26;;;;;;;46.00;29.83;;;10.90;99.90;;;-141.84;90.70;90785.09;5112030;28;20666;-67
2024/04/01 05:07:53;;;;;;;44.83;29.47;;;10.80;99.90;;;-141.84;90.70;91314.81;5113855;27;20218;-66
2024/04/01 05:10:21;;;;;;;49.30;29.50;;;10.80;99.90;;;-141.84;91.17;92904.41;5114737;27;20215;-65
2024/04/01 05:12:48;;;;;;;41.97;29.27;;;10.70;99.90;;;-141.84;91.63;93699.44;5113543;27;20226;-66
2024/04/01 05:15:15;;;;;;;44.33;27.73;;;10.70;99.90;;;-141.84;89.84;88137.56;5112527;27;20210;-66
2024/04/01 05:17:42;;;;;;;46.10;28.20;;;10.70;99.90;;;-141.84;90.12;88931.63;5114037;28;20215;-66
2024/04/01 05:20:14;;;;;;;40.50;28.33;;;10.70;99.90;;;-141.84;90.44;90255.47;5080973;27;20199;-66
2024/04/01 05:22:44;;;;;;;42.47;27.50;;;10.70;99.90;;;-141.84;90.33;90520.28;5115128;27;20311;-65
2024/04/01 05:25:11;;;;;;;42.87;28.00;;;10.70;99.90;;;-141.84;89.87;88402.22;5119351;27;20211;-67
2024/04/01 05:27:41;;;;;;;38.50;25.40;;;10.80;99.90;;;-141.84;89.72;88137.56;5116004;27;20616;-67
2024/04/01 05:30:15;;;;;;;44.00;27.87;;;10.80;99.90;;;-141.84;88.45;84169.50;5115313;27;20218;-67
2024/04/01 05:32:43;;;;;;;45.57;28.47;;;10.90;99.90;;;-141.84;87.35;79412.97;5111291;27;20213;-61
2024/04/01 05:35:16;;;;;;;41.40;28.02;;;11.00;99.90;;;-141.84;86.46;77564.72;5112759;27;20562;-59
2024/04/01 05:37:45;;;;;;;38.97;26.47;;;11.00;99.90;;;-141.84;86.35;75981.22;5114504;27;20207;-61
2024/04/01 05:40:12;;;;;;;42.83;26.77;;;11.10;99.90;;;-141.84;86.46;76508.97;5113019;27;20223;-60
2024/04/01 05:42:40;;;;;;;43.87;26.53;;;11.20;99.90;;;-141.84;84.71;68863.09;5116250;27;20635;-60
2024/04/01 05:45:07;;;;;;;41.60;26.87;;;11.20;99.90;;;-141.84;85.13;70970.84;5064975;27;20267;-60
2024/04/01 05:47:35;;;;;;;38.47;25.57;;;11.30;99.90;;;-141.84;84.60;68072.97;5080143;27;20225;-60
2024/04/01 05:50:03;;;;;;;37.40;25.33;;;11.20;99.90;;;-141.84;82.52;56239.94;5116549;27;20268;-60
2024/04/01 05:52:32;;;;;;;38.73;24.50;;;11.40;99.90;;;-141.84;81.73;51254.38;5116109;27;20741;-60
2024/04/01 05:54:58;;;;;;;40.53;24.93;;;11.40;99.90;;;-141.84;81.53;50467.75;5116439;27;20218;-60
2024/04/01 05:57:25;;;;;;;48.37;26.17;;;11.40;99.90;;;-141.84;80.17;40029.09;5115914;27;20210;-60
2024/04/01 05:59:52;;;;;;;32.03;23.00;;;11.50;99.90;;;-141.84;79.11;31225.94;5111879;28;20764;-60
2024/04/01 06:02:19;;;;;;;40.63;24.00;;;11.60;99.90;;;-141.84;78.38;27426.34;5115264;27;20195;-61
2024/04/01 06:04:46;;;;;;;45.87;24.63;;;11.60;99.90;;;-141.84;78.38;27175.88;5116161;27;20194;-59
2024/04/01 06:07:14;;;;;;;42.63;24.93;;;11.60;99.90;;;-141.84;76.87;22050.06;5116522;27;20214;-60
2024/04/01 06:09:42;;;;;;;44.07;23.80;;;11.60;99.90;;;-141.84;77.18;23162.56;5115178;27;20763;-60
2024/04/01 06:12:13;;;;;;;43.73;23.80;;;11.70;99.90;;;-141.84;77.29;23555.19;5108163;27;20222;-61
2024/04/01 06:14:39;;;;;;;43.33;24.27;;;11.60;99.90;;;-141.84;76.94;22422.22;5108633;27;20219;-59
2024/04/01 06:17:07;;;;;;;44.87;23.87;;;11.60;99.90;;;-141.84;76.26;21283.50;5114838;27;20198;-60
2024/04/01 06:19:33;;;;;;;38.93;22.60;;;11.70;99.90;;;-141.84;76.00;20754.94;5109347;27;20248;-60
2024/04/01 06:22:00;;;;;;;37.23;23.40;;;11.70;99.90;;;-141.84;76.08;21029.38;5114778;27;20231;-61
2024/04/01 06:24:27;;;;;;;36.47;23.03;;;11.70;99.90;;;-141.84;73.89;19480.53;5118930;27;20223;-60
2024/04/01 06:26:55;;;;;;;43.53;23.67;;;11.70;99.90;;;-141.84;73.64;19387.06;5114924;27;20535;-60
2024/04/01 06:29:22;;;;;;;42.20;22.67;;;11.70;99.90;;;-141.84;73.98;19569.97;5112566;27;20207;-61
2024/04/01 06:31:49;;;;;;;44.20;24.03;;;11.70;99.90;;;-141.84;74.95;19980.50;5111281;27;20203;-60
2024/04/01 06:34:16;;;;;;;38.03;22.53;;;11.70;99.90;;;-141.84;74.45;19801.66;5114330;27;20229;-61
2024/04/01 06:36:45;;;;;;;35.20;21.33;;;11.70;99.90;;;-141.84;73.80;19431.78;5111729;28;20226;-60
2024/04/01 06:39:14;;;;;;;38.30;21.57;;;11.80;99.90;;;-141.84;73.28;19446.00;5115770;27;20241;-60
2024/04/01 06:41:42;;;;;;;30.17;20.83;;;11.90;99.90;;;-141.84;72.70;19297.66;5115020;27;20255;-62
2024/04/01 06:44:11;;;;;;;34.67;21.10;;;12.00;99.90;;;-141.84;72.99;19364.72;5112324;28;20199;-61
2024/04/01 06:46:42;;;;;;;38.45;21.02;;;12.10;99.90;;;-141.84;71.57;19192.00;5062640;27;20230;-61
2024/04/01 06:49:11;;;;;;;38.30;20.73;;;12.20;99.90;;;-141.84;68.87;19015.19;5111247;27;20234;-61
2024/04/01 06:51:39;;;;;;;43.00;20.70;;;12.30;99.90;;;-141.84;67.50;18988.78;5113275;27;20688;-61
2024/04/01 06:54:06;;;;;;;43.85;20.63;;;12.30;99.90;;;-141.84;67.73;19021.31;5062408;27;20598;-60
2024/04/01 06:56:34;;;;;;;32.25;18.77;;;12.50;99.90;;;-141.84;67.65;19021.31;5116262;27;20229;-60
2024/04/01 06:59:00;;;;;;;38.42;19.77;;;12.50;99.90;;;-141.84;66.19;19011.13;5121708;27;20202;-60
2024/04/01 07:01:29;;;;;;;41.70;20.20;;;12.50;99.90;;;-141.84;65.37;18988.78;5116608;27;20294;-60
2024/04/01 07:03:55;;;;;;;39.53;20.52;;;12.50;99.90;;;-141.84;64.94;19035.53;5114268;27;20219;-60
2024/04/01 07:06:23;;;;;;;38.17;18.48;;;12.60;99.90;;;-141.84;64.74;19019.28;5113722;27;20230;-61
2024/04/01 07:08:49;;;;;;;38.60;17.85;;;12.60;99.90;;;-141.84;65.44;19039.59;5114923;27;20214;-60
2024/04/01 07:11:16;;;;;;;34.00;17.20;;;12.70;99.90;;;-141.84;65.75;19055.84;5119619;27;20265;-60
2024/04/01 07:13:43;;;;;;;34.17;17.70;;;12.80;99.90;;;-141.84;65.59;19070.06;5125950;27;20267;-60
2024/04/01 07:16:10;;;;;;;38.67;18.92;;;12.90;99.90;;;-141.84;65.29;19037.56;5122511;27;20229;-61
2024/04/01 07:18:39;;;;;;;31.95;16.00;;;12.80;99.90;;;-141.84;64.88;19059.91;5118256;27;20226;-60
2024/04/01 07:21:06;;;;;;;27.50;15.57;;;13.20;99.90;;;-141.84;63.97;19088.34;5117142;27;20241;-61
2024/04/01 07:23:32;;;;;;;24.10;13.85;;;13.40;99.90;;;-141.84;62.21;19106.66;5117586;27;20632;-60
2024/04/01 07:26:00;;;;;;;30.13;14.35;;;13.50;99.90;;;-141.84;62.13;19096.47;5113669;27;20199;-60
2024/04/01 07:28:26;;;;;;;36.30;16.23;;;13.60;99.90;;;-141.84;61.69;19094.44;5116898;27;20215;-61
2024/04/01 07:30:53;;;;;;;40.95;14.02;;;13.80;99.90;;;-141.84;60.00;19112.75;5114561;27;20779;-62
2024/04/01 07:33:20;;;;;;;28.63;14.60;;;13.80;99.90;;;-141.84;60.40;19143.22;5107126;28;20219;-60
2024/04/01 07:35:49;;;;;;;34.72;15.18;;;14.00;99.90;;;-141.84;60.00;19139.16;5116162;27;20234;-60
2024/04/01 07:38:15;;;;;;;33.50;15.13;;;14.00;99.90;;;-141.84;59.33;19157.44;5112395;27;20210;-62
2024/04/01 07:40:45;;;;;;;26.13;14.15;;;14.10;99.90;;;-141.84;58.36;19206.22;5116862;27;20203;-66
2024/04/01 07:43:11;;;;;;;31.90;14.50;;;14.30;99.90;;;-141.84;57.71;19218.41;5114831;27;20214;-66
2024/04/01 07:45:44;;;;;;;37.70;14.32;;;14.40;99.90;;;-141.84;57.54;19238.72;5113594;27;20226;-67
2024/04/01 07:48:10;;;;;;;35.20;14.55;;;14.50;99.90;;;-141.84;56.77;19279.38;5110575;27;20222;-66
2024/04/01 07:50:37;;;;;;;31.10;12.60;;;14.50;99.90;;;-141.84;56.77;19265.13;5116879;27;20233;-66
2024/04/01 07:53:05;;;;;;;33.08;14.43;;;14.60;99.90;;;-141.84;55.35;19224.50;5113398;27;20244;-67
2024/04/01 07:55:32;;;;;;;35.97;13.25;;;14.70;99.90;;;-141.84;54.71;19281.41;5113974;27;20215;-66
2024/04/01 07:57:58;;;;;;;30.98;14.27;;;14.70;99.90;;;-141.84;55.02;19271.25;5113069;27;20214;-66
2024/04/01 08:00:26;;;;;;;32.97;14.90;;;14.70;99.90;;;-141.84;55.57;19261.06;5119983;27;20229;-65
2024/04/01 08:02:52;;;;;;;27.73;13.07;;;14.60;99.90;;;-141.84;55.85;19265.13;5115397;27;20636;-65
2024/04/01 08:05:19;;;;;;;32.90;13.60;;;14.60;99.90;;;-141.84;55.95;19257.00;5112949;27;20198;-66
2024/04/01 08:07:47;;;;;;;28.50;13.07;;;14.60;99.90;;;-141.84;56.51;19285.47;5118840;27;20690;-66
2024/04/01 08:10:16;;;;;;;30.98;13.85;;;14.70;99.90;;;-141.84;56.49;19285.47;5112427;27;20214;-65
2024/04/01 08:12:44;;;;;;;30.98;15.13;;;14.70;99.90;;;-141.84;55.92;19307.81;5114364;28;20632;-66
2024/04/01 08:15:11;;;;;;;34.20;14.98;;;14.70;99.90;;;-141.84;55.24;19297.66;5106676;28;20629;-67
2024/04/01 08:17:37;;;;;;;30.45;14.75;;;14.80;99.90;;;-141.84;54.96;19293.59;5112161;27;20230;-67
2024/04/01 08:20:08;;;;;;;28.75;13.20;;;14.80;99.90;;;-141.84;55.64;19287.50;5121802;27;20577;-66
2024/04/01 08:22:35;;;;;;;29.75;13.52;;;14.80;99.90;;;-141.84;55.99;19297.66;5112993;28;20712;-66
2024/04/01 08:25:02;;;;;;;29.63;13.48;;;14.80;99.90;;;-141.84;55.94;19328.13;5115771;28;20215;-66
2024/04/01 08:27:30;;;;;;;33.70;13.07;;;14.70;99.90;;;-141.84;55.70;19317.97;5081620;28;20226;-67
2024/04/01 08:29:57;;;;;;;28.20;12.50;;;14.80;99.90;;;-141.84;54.69;19307.81;5118015;27;20222;-66
2024/04/01 08:32:23;;;;;;;31.08;13.27;;;14.90;99.90;;;-141.84;54.15;19380.97;5114598;28;20198;-66
2024/04/01 08:34:50;;;;;;;29.60;12.75;;;15.00;99.90;;;-141.84;54.28;19374.88;5114342;28;20209;-66
2024/04/01 08:37:17;;;;;;;29.15;12.40;;;15.20;99.90;;;-141.84;53.18;19421.63;5111965;28;20721;-67
2024/04/01 08:39:44;;;;;;;23.63;12.15;;;15.40;99.90;;;-141.84;52.75;19423.66;5119532;27;20601;-66
2024/04/01 08:42:18;;;;;;;32.05;13.32;;;15.60;99.90;;;-141.84;51.68;19448.03;5114474;28;20215;-66
2024/04/01 08:44:48;;;;;;;31.83;12.50;;;15.80;99.90;;;-141.84;51.17;19500.88;5123541;27;20229;-66
2024/04/01 08:47:15;;;;;;;23.92;11.50;;;16.00;99.90;;;-141.84;50.86;19547.59;5113070;27;20685;-66
2024/04/01 08:49:51;;;;;;;29.52;12.02;;;16.00;99.90;;;-141.84;50.58;19492.75;5118155;27;20194;-67
2024/04/01 08:52:25;;;;;;;33.72;11.07;;;16.10;99.90;;;-141.84;49.36;19553.72;5113688;27;20226;-66
2024/04/01 08:54:54;;;;;;;27.17;9.90;;;16.30;99.90;;;-141.84;49.89;19527.28;5116797;27;20743;-68
2024/04/01 08:57:20;;;;;;;25.48;10.23;;;16.40;99.90;;;-141.84;49.34;19574.03;5114341;27;20565;-67
2024/04/01 08:59:50;;;;;;;25.65;10.50;;;16.50;99.90;;;-141.84;48.02;19635.00;5117168;27;20217;-67
2024/04/01 09:02:16;;;;;;;23.23;10.48;;;16.80;99.90;;;-141.84;47.03;19673.59;5113204;27;20210;-68
2024/04/01 09:04:45;;;;;;;33.40;10.43;;;17.10;99.90;;;-141.84;45.98;19777.25;5116523;27;20206;-66
2024/04/01 09:07:14;;;;;;;26.73;10.40;;;17.50;99.90;;;-141.84;45.88;19756.94;5116665;27;20232;-66
2024/04/01 09:09:41;;;;;;;25.73;11.10;;;17.60;99.90;;;-141.84;45.36;19758.97;5111401;27;20221;-66
2024/04/01 09:12:13;;;;;;;25.70;11.15;;;17.70;99.90;;;-141.84;45.28;19830.09;5108954;27;20221;-66
2024/04/01 09:14:45;;;;;;;25.60;9.82;;;17.70;99.90;;;-141.84;44.80;19807.75;5112698;27;20231;-66
2024/04/01 09:17:24;;;;;;;29.10;10.48;;;17.80;99.90;;;-141.84;44.72;19850.41;5110244;27;20195;-67
2024/04/01 09:19:52;;;;;;;30.23;9.60;;;17.90;99.90;;;-141.84;44.18;19866.69;5115269;27;20587;-67
2024/04/01 09:22:18;;;;;;;24.70;9.70;;;18.00;99.90;;;-141.84;43.77;19860.59;5115070;27;20226;-67
2024/04/01 09:24:46;;;;;;;18.52;7.70;;;18.10;99.90;;;-141.84;44.12;19882.94;5115615;27;20263;-67
2024/04/01 09:27:13;;;;;;;20.35;9.10;;;18.20;99.90;;;-141.84;44.18;19866.69;5114872;27;20600;-67
2024/04/01 09:29:40;;;;;;;23.25;9.05;;;18.10;99.90;;;-141.84;43.85;19848.38;5115239;27;20222;-67
2024/04/01 09:32:06;;;;;;;29.63;8.98;;;18.00;99.90;;;-141.84;43.50;19919.53;5115409;27;20210;-66
2024/04/01 09:34:35;;;;;;;27.27;9.07;;;18.10;99.90;;;-141.84;43.63;19899.19;5115864;27;20230;-66
2024/04/01 09:37:02;;;;;;;26.15;9.45;;;18.10;99.90;;;-141.84;43.87;19872.78;5116508;27;20222;-66
2024/04/01 09:39:30;;;;;;;25.70;9.23;;;18.10;99.90;;;-141.84;44.17;19846.34;5118388;27;20218;-67
2024/04/01 09:41:58;;;;;;;26.73;9.30;;;17.90;99.90;;;-141.84;44.21;19882.94;5112864;28;20652;-66
2024/04/01 09:44:25;;;;;;;24.27;9.23;;;17.90;99.90;;;-141.84;44.66;19826.03;5112203;28;20207;-66
2024/04/01 09:46:54;;;;;;;26.27;8.75;;;17.70;99.90;;;-141.84;44.92;19882.94;5117921;27;20567;-66
2024/04/01 09:49:22;;;;;;;24.77;8.18;;;17.70;99.90;;;-141.84;44.02;19891.06;5110589;27;20249;-66
2024/04/01 09:51:50;;;;;;;21.55;8.20;;;18.00;99.90;;;-141.84;43.33;19901.22;5110504;27;20215;-69
2024/04/01 09:54:18;;;;;;;25.80;8.50;;;18.00;99.90;;;-141.84;43.83;19925.63;5115032;27;20241;-68